Time;durP1;ratioP1;P1;durP2;ratioP2;P2;SDS_P1;SDS_P2;PMS_P1;PMS_P2;Temp;Humidity;BMP_temperature;BMP_pressure;BME280_temperature;BME280_humidity;BME280_pressure;Samples;Min_cycle;Max_cycle;Signal;HPM_P1;HPM_P2
2022/05/23 00:02:05;;;;;;;0.50;0.50;;;13.20;99.90;;;;;;5002576;28;20065;-82
2022/05/23 00:04:30;;;;;;;0.40;0.40;;;13.10;99.90;;;;;;4998408;28;20049;-78
2022/05/23 00:06:57;;;;;;;0.40;0.40;;;13.00;99.90;;;;;;4991787;28;20053;-80
2022/05/23 00:09:24;;;;;;;0.30;0.30;;;13.10;99.90;;;;;;5010154;28;20506;-82
2022/05/23 00:11:51;;;;;;;0.32;0.32;;;13.00;99.90;;;;;;4978445;28;20752;-81
2022/05/23 00:14:17;;;;;;;;;;;12.90;99.90;;;;;;4993452;28;20137;-81
2022/05/23 00:16:46;;;;;;;0.35;0.35;;;12.90;99.90;;;;;;5008729;28;20011;-79
2022/05/23 00:19:13;;;;;;;0.30;0.30;;;12.80;99.90;;;;;;5010429;28;20087;-77
2022/05/23 00:21:40;;;;;;;0.40;0.40;;;12.70;99.90;;;;;;5000532;28;20519;-83
2022/05/23 00:24:07;;;;;;;0.30;0.30;;;12.70;99.90;;;;;;5004986;28;20038;-83
2022/05/23 00:26:33;;;;;;;0.73;0.73;;;12.60;99.90;;;;;;4991387;28;20038;-78
2022/05/23 00:28:59;;;;;;;;;;;12.50;99.90;;;;;;4981634;28;20041;-79
2022/05/23 00:31:25;;;;;;;0.40;0.40;;;12.50;99.90;;;;;;4993529;28;20393;-81
2022/05/23 00:36:35;;;;;;;0.40;0.40;;;12.30;99.90;;;;;;5020574;28;20053;-81
2022/05/23 00:39:01;;;;;;;0.32;0.32;;;12.30;99.90;;;;;;5022731;28;20045;-78
2022/05/23 00:44:27;;;;;;;0.40;0.40;;;12.10;99.90;;;;;;5012883;28;20070;-81
2022/05/23 00:46:56;;;;;;;0.35;0.35;;;12.10;99.90;;;;;;4996310;28;20392;-82
2022/05/23 00:49:31;;;;;;;0.47;0.47;;;12.00;99.90;;;;;;4996592;28;20085;-82
2022/05/23 00:52:01;;;;;;;0.40;0.40;;;12.00;99.90;;;;;;5014251;28;20134;-80
2022/05/23 00:54:35;;;;;;;0.30;0.30;;;11.90;99.90;;;;;;5001912;28;20041;-81
2022/05/23 00:57:01;;;;;;;0.30;0.30;;;11.90;99.90;;;;;;4996690;28;20547;-81
2022/05/23 00:59:30;;;;;;;0.30;0.30;;;11.80;99.90;;;;;;4996971;28;20069;-78
2022/05/23 01:01:57;;;;;;;0.38;0.38;;;11.70;99.90;;;;;;5005757;28;20053;-82
2022/05/23 01:04:23;;;;;;;0.50;0.50;;;11.70;99.90;;;;;;4991666;28;20080;-80
2022/05/23 01:06:49;;;;;;;;;;;11.60;99.90;;;;;;4996464;28;20049;-77
2022/05/23 01:09:14;;;;;;;0.47;0.47;;;11.50;99.90;;;;;;4995491;28;19918;-77
2022/05/23 01:11:40;;;;;;;0.40;0.40;;;11.50;99.90;;;;;;4999945;28;20057;-82
2022/05/23 01:14:07;;;;;;;;;;;11.40;99.90;;;;;;5011275;28;20042;-80
2022/05/23 01:16:32;;;;;;;0.40;0.40;;;11.40;99.90;;;;;;4995959;28;19985;-79
2022/05/23 01:18:58;;;;;;;0.30;0.30;;;11.40;99.90;;;;;;4997366;28;20126;-80
2022/05/23 01:21:27;;;;;;;;;;;11.40;99.90;;;;;;4997706;28;20117;-81
2022/05/23 01:24:32;;;;;;;0.50;0.50;;;11.30;99.90;;;;;;5009987;28;19921;-79
2022/05/23 01:26:59;;;;;;;0.40;0.40;;;11.30;99.90;;;;;;4983328;28;20053;-81
2022/05/23 01:29:24;;;;;;;;;;;11.30;99.90;;;;;;4996540;28;20050;-81
2022/05/23 01:31:50;;;;;;;0.50;0.50;;;11.20;99.90;;;;;;5006293;28;20013;-79
2022/05/23 01:34:16;;;;;;;0.55;0.55;;;11.20;99.90;;;;;;5015648;28;20042;-78
2022/05/23 01:36:42;;;;;;;0.45;0.45;;;11.20;99.90;;;;;;4980201;28;20042;-81
2022/05/23 01:39:07;;;;;;;0.40;0.40;;;11.20;99.90;;;;;;4996070;28;20061;-78
2022/05/23 01:41:33;;;;;;;0.57;0.57;;;11.10;99.90;;;;;;4963335;28;20454;-79
2022/05/23 01:43:59;;;;;;;0.40;0.40;;;11.10;99.90;;;;;;4991577;28;20038;-77
2022/05/23 01:46:24;;;;;;;0.40;0.40;;;11.10;99.90;;;;;;5011640;28;20543;-80
2022/05/23 01:48:50;;;;;;;0.50;0.50;;;11.00;99.90;;;;;;4996251;28;20099;-81
2022/05/23 01:51:16;;;;;;;0.35;0.35;;;11.00;99.90;;;;;;4994296;28;20399;-78
2022/05/23 01:53:42;;;;;;;0.50;0.50;;;11.00;99.90;;;;;;4991793;28;20046;-80
2022/05/23 01:56:08;;;;;;;0.40;0.40;;;11.00;99.90;;;;;;4995202;28;20045;-82
2022/05/23 02:01:19;;;;;;;0.45;0.45;;;11.10;99.90;;;;;;4998178;28;20046;-79
2022/05/23 02:03:47;;;;;;;0.40;0.40;;;11.20;99.90;;;;;;4971019;28;20049;-78
2022/05/23 02:06:13;;;;;;;0.30;0.30;;;11.20;99.90;;;;;;4994796;28;20049;-81
2022/05/23 02:08:39;;;;;;;0.40;0.40;;;11.30;99.90;;;;;;4986946;28;20443;-82
2022/05/23 02:11:06;;;;;;;;;;;11.30;99.90;;;;;;4991158;28;20333;-82
2022/05/23 02:13:34;;;;;;;0.40;0.40;;;11.40;99.90;;;;;;5012739;28;20393;-80
2022/05/23 02:16:00;;;;;;;0.47;0.47;;;11.40;99.90;;;;;;5012148;28;20045;-82
2022/05/23 02:18:26;;;;;;;;;;;11.40;99.90;;;;;;4989670;28;20065;-79
2022/05/23 02:20:52;;;;;;;0.30;0.30;;;11.50;99.90;;;;;;4983202;28;19972;-79
2022/05/23 02:23:18;;;;;;;0.40;0.40;;;11.50;99.90;;;;;;5011415;28;20092;-80
2022/05/23 02:25:44;;;;;;;0.40;0.40;;;11.50;99.90;;;;;;5022271;28;20053;-80
2022/05/23 02:28:10;;;;;;;0.30;0.30;;;11.60;99.90;;;;;;4999552;28;20081;-83
2022/05/23 02:30:35;;;;;;;0.30;0.30;;;11.60;99.90;;;;;;4977980;28;20073;-78
2022/05/23 02:33:01;;;;;;;0.57;0.57;;;11.60;99.90;;;;;;5011122;28;20038;-82
2022/05/23 02:35:27;;;;;;;0.40;0.40;;;11.60;99.90;;;;;;4977589;28;20034;-82
2022/05/23 02:37:52;;;;;;;0.40;0.40;;;11.60;99.90;;;;;;4998479;28;20077;-79
2022/05/23 02:40:18;;;;;;;0.40;0.40;;;11.60;99.90;;;;;;4995015;28;20088;-81
2022/05/23 02:42:44;;;;;;;0.20;0.20;;;11.60;99.90;;;;;;5018552;28;20045;-82
2022/05/23 02:45:10;;;;;;;0.32;0.32;;;11.60;99.90;;;;;;5011981;28;20030;-79
2022/05/23 02:47:36;;;;;;;;;;;11.60;99.90;;;;;;4989954;28;20037;-79
2022/05/23 02:50:03;;;;;;;0.45;0.45;;;11.70;99.90;;;;;;5013279;28;19961;-78
2022/05/23 02:52:29;;;;;;;0.38;0.38;;;11.60;99.90;;;;;;5010260;28;20050;-79
2022/05/23 02:54:54;;;;;;;0.40;0.40;;;11.60;99.90;;;;;;4984926;28;20046;-80
2022/05/23 02:57:20;;;;;;;0.40;0.40;;;11.60;99.90;;;;;;5011170;28;20050;-81
2022/05/23 02:59:46;;;;;;;0.30;0.30;;;11.60;99.90;;;;;;4993715;28;20534;-82
2022/05/23 03:04:56;;;;;;;0.40;0.40;;;11.50;99.90;;;;;;5010977;28;20522;-84
2022/05/23 03:07:21;;;;;;;0.40;0.40;;;11.50;99.90;;;;;;5001939;28;20072;-82
2022/05/23 03:09:47;;;;;;;0.45;0.45;;;11.50;99.90;;;;;;5009057;28;20052;-85
2022/05/23 03:12:13;;;;;;;0.30;0.30;;;11.50;99.90;;;;;;4980181;28;20043;-78
2022/05/23 03:14:39;;;;;;;0.40;0.40;;;11.50;99.90;;;;;;5012377;28;20041;-81
2022/05/23 03:17:06;;;;;;;0.40;0.40;;;11.50;99.90;;;;;;5011662;28;20129;-79
2022/05/23 03:19:36;;;;;;;0.35;0.35;;;11.40;99.90;;;;;;4996930;28;20104;-77
2022/05/23 03:27:30;;;;;;;0.40;0.40;;;11.40;99.90;;;;;;4996985;28;20103;-80
2022/05/23 03:29:55;;;;;;;0.38;0.38;;;11.40;99.90;;;;;;4974615;28;20050;-79
2022/05/23 03:32:21;;;;;;;0.40;0.40;;;11.40;99.90;;;;;;5006903;28;20029;-81
2022/05/23 03:34:47;;;;;;;0.40;0.40;;;11.40;99.90;;;;;;4974337;28;20129;-82
2022/05/23 03:37:13;;;;;;;0.35;0.35;;;11.30;99.90;;;;;;4994892;28;20041;-80
2022/05/23 03:39:39;;;;;;;0.52;0.52;;;11.40;99.90;;;;;;4986436;28;20510;-79
2022/05/23 03:42:05;;;;;;;;;;;11.30;99.90;;;;;;4981827;28;20050;-79
2022/05/23 03:44:31;;;;;;;0.30;0.30;;;11.30;99.90;;;;;;5008510;28;19947;-84
2022/05/23 03:46:57;;;;;;;0.40;0.40;;;11.30;99.90;;;;;;4993053;28;20063;-83
2022/05/23 03:49:22;;;;;;;0.63;0.63;;;11.30;99.90;;;;;;4994599;28;20053;-83
2022/05/23 03:51:48;;;;;;;0.45;0.45;;;11.30;99.90;;;;;;4974451;28;21048;-80
2022/05/23 03:54:14;;;;;;;0.38;0.38;;;11.30;99.90;;;;;;4986394;28;20046;-83
2022/05/23 03:56:40;;;;;;;0.30;0.30;;;11.40;99.90;;;;;;4977290;28;20096;-81
2022/05/23 03:59:06;;;;;;;0.38;0.38;;;11.40;99.90;;;;;;5009782;28;20050;-81
2022/05/23 04:01:32;;;;;;;0.30;0.30;;;11.50;99.90;;;;;;5008599;28;20048;-82
2022/05/23 04:03:58;;;;;;;0.43;0.43;;;11.60;99.90;;;;;;5010603;28;20042;-80
2022/05/23 04:06:24;;;;;;;0.40;0.40;;;11.70;99.90;;;;;;4987513;28;20053;-79
2022/05/23 04:08:50;;;;;;;0.30;0.30;;;11.80;99.90;;;;;;4991237;28;20459;-81
2022/05/23 04:11:16;;;;;;;;;;;11.90;99.90;;;;;;4991046;28;20049;-81
2022/05/23 04:13:42;;;;;;;0.30;0.30;;;12.00;99.90;;;;;;5019600;28;20306;-83
2022/05/23 04:16:08;;;;;;;0.30;0.30;;;12.00;99.90;;;;;;4996052;28;20121;-82
2022/05/23 04:18:36;;;;;;;0.38;0.38;;;12.10;99.90;;;;;;4992295;28;20463;-79
2022/05/23 04:21:03;;;;;;;0.30;0.30;;;12.20;99.90;;;;;;4980714;28;20050;-80
2022/05/23 04:23:30;;;;;;;0.43;0.43;;;12.20;99.90;;;;;;5014017;28;20046;-82
2022/05/23 04:26:01;;;;;;;0.20;0.20;;;12.30;99.90;;;;;;5010999;28;20120;-81
2022/05/23 04:28:27;;;;;;;0.30;0.30;;;12.30;99.90;;;;;;4997344;28;20083;-79
2022/05/23 04:30:52;;;;;;;0.40;0.40;;;12.30;99.90;;;;;;4976657;28;20192;-79
2022/05/23 04:36:02;;;;;;;0.32;0.32;;;12.30;99.90;;;;;;5010517;28;20052;-80
2022/05/23 04:38:28;;;;;;;0.40;0.40;;;12.30;99.90;;;;;;5013668;28;20034;-81
2022/05/23 04:40:54;;;;;;;0.32;0.32;;;12.30;99.90;;;;;;4989544;28;20045;-80
2022/05/23 04:43:20;;;;;;;;;;;12.40;99.90;;;;;;5010038;28;20052;-82
2022/05/23 04:45:45;;;;;;;0.40;0.40;;;12.40;99.90;;;;;;4991278;28;20075;-81
2022/05/23 04:50:56;;;;;;;0.30;0.30;;;12.40;99.90;;;;;;5003676;28;20048;-79
2022/05/23 04:53:21;;;;;;;0.40;0.40;;;12.50;99.90;;;;;;5013247;28;20049;-82
2022/05/23 04:55:47;;;;;;;0.50;0.50;;;12.50;99.90;;;;;;4987699;28;20042;-80
2022/05/23 04:58:13;;;;;;;0.30;0.30;;;12.60;99.90;;;;;;5011499;28;20038;-81
2022/05/23 05:00:42;;;;;;;0.40;0.40;;;12.70;99.90;;;;;;4992302;28;20131;-83
2022/05/23 05:03:08;;;;;;;0.40;0.40;;;12.80;99.90;;;;;;5018353;28;20080;-82
2022/05/23 05:05:34;;;;;;;;;;;12.90;99.90;;;;;;5000025;28;20050;-83
2022/05/23 05:08:01;;;;;;;0.22;0.22;;;13.10;99.90;;;;;;4999550;28;20091;-81
2022/05/23 05:10:28;;;;;;;0.40;0.40;;;13.20;99.90;;;;;;5000943;28;20426;-81
2022/05/23 05:12:55;;;;;;;0.40;0.40;;;13.40;99.90;;;;;;4985874;28;20064;-82
2022/05/23 05:15:22;;;;;;;0.35;0.35;;;13.60;99.90;;;;;;5003419;28;20041;-81
2022/05/23 05:17:48;;;;;;;0.30;0.30;;;13.70;99.90;;;;;;4985119;28;20125;-81
2022/05/23 05:20:15;;;;;;;0.40;0.40;;;13.80;99.90;;;;;;4980869;28;20128;-81
2022/05/23 05:22:41;;;;;;;0.30;0.30;;;13.90;99.90;;;;;;4995264;28;20446;-82
2022/05/23 05:25:08;;;;;;;0.40;0.40;;;14.00;99.90;;;;;;5004036;28;20132;-81
2022/05/23 05:27:35;;;;;;;0.57;0.57;;;14.10;99.90;;;;;;5011505;28;20129;-82
2022/05/23 05:30:01;;;;;;;;;;;14.10;99.90;;;;;;4981600;28;20047;-81
2022/05/23 05:32:26;;;;;;;0.40;0.40;;;14.20;99.90;;;;;;4982252;28;20008;-79
2022/05/23 05:35:12;;;;;;;0.50;0.40;;;14.10;99.90;;;;;;5009730;28;20048;-80
2022/05/23 05:38:02;;;;;;;0.40;0.40;;;14.10;99.90;;;;;;4989999;28;20046;-79
2022/05/23 05:40:31;;;;;;;0.25;0.25;;;14.10;99.90;;;;;;4995236;28;20045;-82
2022/05/23 05:43:05;;;;;;;0.40;0.40;;;14.20;99.90;;;;;;5011644;28;20041;-82
2022/05/23 05:45:41;;;;;;;0.30;0.30;;;14.20;99.90;;;;;;4992192;28;20524;-81
2022/05/23 05:48:07;;;;;;;0.40;0.40;;;14.20;99.90;;;;;;4996505;28;20042;-82
2022/05/23 05:50:38;;;;;;;;;;;14.20;99.90;;;;;;4996322;28;20482;-80
2022/05/23 05:53:29;;;;;;;0.30;0.30;;;14.30;99.90;;;;;;5009311;28;19927;-80
2022/05/23 05:55:57;;;;;;;0.40;0.40;;;14.30;99.90;;;;;;5006161;28;20042;-83
2022/05/23 05:58:22;;;;;;;0.30;0.30;;;14.30;99.90;;;;;;4983316;28;20185;-80
2022/05/23 06:00:48;;;;;;;0.30;0.30;;;14.30;99.90;;;;;;4977911;28;20038;-80
2022/05/23 06:03:14;;;;;;;0.30;0.30;;;14.30;99.90;;;;;;4995677;28;20078;-81
2022/05/23 06:11:23;;;;;;;0.45;0.45;;;14.50;99.90;;;;;;5023373;28;20776;-81
2022/05/23 06:13:49;;;;;;;0.30;0.30;;;14.50;99.90;;;;;;5018766;28;20038;-80
2022/05/23 06:16:16;;;;;;;0.43;0.43;;;14.60;99.90;;;;;;5010559;28;20037;-83
2022/05/23 06:19:08;;;;;;;0.28;0.28;;;14.60;99.90;;;;;;4985253;28;20038;-88
2022/05/23 06:24:45;;;;;;;0.50;0.50;;;14.40;99.90;;;;;;5002620;28;20100;-79
2022/05/23 06:35:15;;;;;;;0.70;0.63;;;14.90;99.90;;;;;;4900064;29;20063;-83
2022/05/23 06:38:41;;;;;;;0.40;0.40;;;15.00;99.90;;;;;;4866973;29;20056;-84
2022/05/23 06:42:00;;;;;;;2.85;0.50;;;15.20;99.90;;;;;;4890257;29;20059;-84
2022/05/23 06:45:18;;;;;;;0.25;0.25;;;15.30;99.90;;;;;;4901731;29;20056;-83
2022/05/23 06:48:25;;;;;;;0.40;0.40;;;14.90;99.90;;;;;;4995459;28;20044;-81
2022/05/23 06:51:11;;;;;;;0.30;0.30;;;14.70;99.90;;;;;;4990089;28;20050;-82
2022/05/23 06:54:39;;;;;;;0.40;0.40;;;15.60;99.90;;;;;;5009094;28;20050;-86
2022/05/23 07:01:20;;;;;;;;;;;;;;;;;;;;;
2022/05/23 07:13:19;;;;;;;0.20;0.20;;;16.60;99.90;;;;;;5015560;28;20149;-80
2022/05/23 07:15:48;;;;;;;;;;;16.70;99.90;;;;;;5006542;28;20107;-81
2022/05/23 07:18:18;;;;;;;0.32;0.32;;;16.90;99.90;;;;;;4993746;28;19952;-81
2022/05/23 07:20:44;;;;;;;0.30;0.30;;;17.00;99.90;;;;;;5010288;28;20038;-81
2022/05/23 07:23:13;;;;;;;0.40;0.40;;;17.10;99.90;;;;;;5003729;28;20037;-81
2022/05/23 07:25:40;;;;;;;0.38;0.38;;;17.20;99.90;;;;;;4983523;28;20038;-80
2022/05/23 07:28:06;;;;;;;0.43;0.43;;;17.30;99.90;;;;;;4993682;28;20076;-79
2022/05/23 07:30:54;;;;;;;0.30;0.30;;;17.40;99.90;;;;;;5018769;28;20046;-84
2022/05/23 07:33:31;;;;;;;0.43;0.43;;;17.50;99.90;;;;;;5005706;28;20038;-82
2022/05/23 07:35:59;;;;;;;0.30;0.30;;;17.70;99.90;;;;;;4973106;28;20551;-83
2022/05/23 07:38:31;;;;;;;0.43;0.43;;;17.90;99.90;;;;;;4975950;28;20038;-80
2022/05/23 07:40:59;;;;;;;0.30;0.30;;;18.00;99.90;;;;;;4999830;28;20038;-80
2022/05/23 07:43:25;;;;;;;0.30;0.30;;;18.20;99.90;;;;;;5009438;28;20059;-81
2022/05/23 07:45:53;;;;;;;0.30;0.30;;;18.40;99.90;;;;;;5012156;28;20046;-81
2022/05/23 07:48:53;;;;;;;0.30;0.30;;;18.50;99.90;;;;;;5010568;28;20645;-85
2022/05/23 07:51:22;;;;;;;0.32;0.32;;;18.60;99.90;;;;;;5000090;28;20692;-81
2022/05/23 08:02:24;;;;;;;0.40;0.40;;;19.00;99.90;;;;;;4996570;28;20064;-81
2022/05/23 08:04:50;;;;;;;;;;;19.20;99.90;;;;;;5009178;28;20041;-80
2022/05/23 08:07:41;;;;;;;0.50;0.50;;;19.30;99.90;;;;;;4977552;28;20627;-86
2022/05/23 08:10:10;;;;;;;0.50;0.50;;;19.30;99.90;;;;;;4998297;28;20046;-79
2022/05/23 08:12:41;;;;;;;0.40;0.40;;;19.40;99.90;;;;;;5002313;28;20209;-80
2022/05/23 08:16:35;;;;;;;;;;;;;;;;;;;;;
2022/05/23 08:18:36;;;;;;;0.60;0.60;;;19.50;99.90;;;;;;4952935;28;20054;-88
2022/05/23 08:21:57;;;;;;;;;;;;;;;;;;;;;
2022/05/23 08:25:40;;;;;;;;;;;;;;;;;;;;;
2022/05/23 08:28:24;;;;;;;0.30;0.30;;;20.20;99.90;;;;;;5003576;28;20733;-86
2022/05/23 08:35:37;;;;;;;0.45;0.40;;;20.10;99.90;;;;;;4952739;28;20047;-85
2022/05/23 08:38:21;;;;;;;0.40;0.40;;;19.80;99.90;;;;;;4926185;29;20066;-81
2022/05/23 08:44:52;;;;;;;0.40;0.40;;;19.80;99.90;;;;;;4977122;28;20074;-83
2022/05/23 08:47:47;;;;;;;0.73;0.73;;;19.50;99.90;;;;;;4978343;28;20046;-83
2022/05/23 08:50:24;;;;;;;0.50;0.50;;;20.10;99.90;;;;;;4989610;28;20109;-79
2022/05/23 08:53:11;;;;;;;0.30;0.30;;;20.40;99.90;;;;;;4978033;28;20496;-85
2022/05/23 08:55:54;;;;;;;0.40;0.40;;;20.80;99.90;;;;;;4993353;28;20049;-85
2022/05/23 08:58:49;;;;;;;1.27;1.17;;;21.00;99.90;;;;;;4992411;28;20046;-84
2022/05/23 09:01:48;;;;;;;0.50;0.50;;;20.30;99.90;;;;;;5000509;28;20077;-83
2022/05/23 09:04:58;;;;;;;0.47;0.47;;;21.10;99.90;;;;;;4977668;28;20126;-82
2022/05/23 09:07:58;;;;;;;0.50;0.50;;;21.00;99.90;;;;;;4995289;28;20035;-84
2022/05/23 09:11:09;;;;;;;0.40;0.40;;;20.90;99.90;;;;;;5005570;28;20204;-82
2022/05/23 09:13:45;;;;;;;0.40;0.40;;;20.90;99.90;;;;;;4990626;28;20044;-80
2022/05/23 09:16:13;;;;;;;0.20;0.20;;;20.80;99.90;;;;;;4994096;28;20590;-81
2022/05/23 09:19:16;;;;;;;1.10;0.60;;;20.80;99.90;;;;;;4995368;28;20067;-82
2022/05/23 09:22:48;;;;;;;;;;;;;;;;;;;;;
2022/05/23 09:25:49;;;;;;;0.20;0.20;;;21.50;99.90;;;;;;5001882;28;20046;-82
2022/05/23 09:29:48;;;;;;;0.30;0.30;;;21.50;99.90;;;;;;4987598;28;20038;-86
2022/05/23 09:32:17;;;;;;;0.30;0.30;;;21.70;99.90;;;;;;4946358;28;20472;-86
2022/05/23 09:34:58;;;;;;;0.45;0.45;;;21.40;99.90;;;;;;5009980;23;20454;-79
2022/05/23 09:37:38;;;;;;;0.40;0.40;;;21.90;99.90;;;;;;5016559;28;20084;-79
2022/05/23 09:40:08;;;;;;;0.40;0.40;;;22.00;99.90;;;;;;5000002;28;20458;-79
2022/05/23 09:48:13;;;;;;;0.40;0.40;;;22.40;99.90;;;;;;5006040;28;20256;-77
2022/05/23 09:50:41;;;;;;;0.80;0.77;;;;;;;;;;5006180;28;20046;-79
2022/05/23 09:53:21;;;;;;;0.40;0.40;;;22.70;99.90;;;;;;5005616;28;20034;-79
2022/05/23 09:55:49;;;;;;;0.20;0.20;;;22.80;99.90;;;;;;4993254;28;20056;-75
2022/05/23 09:58:28;;;;;;;0.30;0.30;;;23.10;99.90;;;;;;4994443;28;20398;-77
2022/05/23 10:01:09;;;;;;;0.30;0.30;;;23.20;99.90;;;;;;4988250;28;20045;-76
2022/05/23 10:03:46;;;;;;;0.32;0.32;;;23.50;99.90;;;;;;4986462;28;20058;-78
2022/05/23 10:06:13;;;;;;;0.73;0.50;;;23.60;99.90;;;;;;4975887;28;20078;-78
2022/05/23 10:08:45;;;;;;;0.40;0.40;;;23.70;99.90;;;;;;5002493;28;20054;-79
2022/05/23 10:11:34;;;;;;;0.20;0.20;;;23.80;99.90;;;;;;4985929;28;20088;-77
2022/05/23 10:14:03;;;;;;;0.17;0.17;;;24.00;99.90;;;;;;4986186;28;20058;-79
2022/05/23 10:16:29;;;;;;;0.25;0.25;;;24.10;99.60;;;;;;5000152;28;20123;-75
2022/05/23 10:18:55;;;;;;;0.35;0.35;;;24.10;99.90;;;;;;5001779;28;20065;-78
2022/05/23 10:21:20;;;;;;;0.30;0.30;;;24.20;99.90;;;;;;5018150;28;20112;-77
2022/05/23 10:24:04;;;;;;;0.40;0.40;;;24.30;98.90;;;;;;5042991;28;20089;-77
2022/05/23 10:26:35;;;;;;;0.22;0.22;;;24.30;99.90;;;;;;4990980;28;20483;-78
2022/05/23 10:29:40;;;;;;;0.43;0.43;;;24.30;97.10;;;;;;5006619;28;20050;-76
2022/05/23 10:32:09;;;;;;;0.22;0.22;;;24.30;98.70;;;;;;4979425;28;20148;-76
2022/05/23 10:34:40;;;;;;;0.30;0.30;;;24.40;99.90;;;;;;5003790;28;20534;-78
2022/05/23 10:37:19;;;;;;;0.22;0.22;;;24.50;99.90;;;;;;5013637;28;20085;-80
2022/05/23 10:42:38;;;;;;;0.20;0.20;;;24.60;98.20;;;;;;5016475;28;20636;-81
2022/05/23 10:45:23;;;;;;;0.40;0.40;;;24.70;99.50;;;;;;4991070;28;20638;-77
2022/05/23 10:47:51;;;;;;;0.20;0.20;;;25.00;99.90;;;;;;5022615;28;20521;-77
2022/05/23 10:50:43;;;;;;;0.20;0.20;;;25.30;99.20;;;;;;5016202;28;20043;-78
2022/05/23 10:53:14;;;;;;;0.20;0.20;;;25.50;98.00;;;;;;5014190;28;20091;-78
2022/05/23 10:55:57;;;;;;;0.43;0.30;;;25.50;97.40;;;;;;5007808;28;20073;-79
2022/05/23 10:58:43;;;;;;;0.30;0.30;;;25.50;95.00;;;;;;4988085;28;20126;-75
2022/05/23 11:01:36;;;;;;;0.30;0.30;;;25.40;96.30;;;;;;5019277;28;20495;-77
2022/05/23 11:04:40;;;;;;;0.65;0.32;;;25.70;95.10;;;;;;5005690;28;20143;-81
2022/05/23 11:07:34;;;;;;;0.20;0.20;;;25.60;90.20;;;;;;5005199;28;20088;-79
2022/05/23 11:10:24;;;;;;;0.30;0.30;;;25.50;93.30;;;;;;4984411;28;20041;-79
2022/05/23 11:13:20;;;;;;;0.20;0.20;;;25.60;93.60;;;;;;5011559;28;20046;-77
2022/05/23 11:16:16;;;;;;;0.20;0.20;;;25.90;95.60;;;;;;5007954;28;20049;-77
2022/05/23 11:19:01;;;;;;;0.73;0.73;;;26.10;95.70;;;;;;5003178;28;20436;-82
2022/05/23 11:21:41;;;;;;;0.25;0.25;;;26.30;94.90;;;;;;5017953;28;20352;-80
2022/05/23 11:24:18;;;;;;;0.20;0.20;;;26.30;91.20;;;;;;5011928;28;20041;-77
2022/05/23 11:33:41;;;;;;;0.20;0.20;;;26.20;91.20;;;;;;4991329;28;20046;-78
2022/05/23 11:35:21;;;;;;;0.20;0.20;;;26.30;87.40;;;;;;5003741;28;20128;-78
2022/05/23 11:37:50;;;;;;;0.20;0.20;;;26.30;83.20;;;;;;4967222;28;20091;-80
2022/05/23 11:40:25;;;;;;;0.45;0.45;;;26.20;85.60;;;;;;5001055;28;20577;-81
2022/05/23 11:42:56;;;;;;;0.13;0.13;;;26.20;91.60;;;;;;5039204;28;20050;-80
2022/05/23 11:48:34;;;;;;;0.20;0.20;;;26.00;72.90;;;;;;5005386;28;20491;-77
2022/05/23 11:51:21;;;;;;;0.13;0.13;;;26.10;77.40;;;;;;5005059;28;20042;-77
2022/05/23 11:53:56;;;;;;;0.28;0.28;;;26.20;79.40;;;;;;4996560;28;20081;-79
2022/05/23 11:56:44;;;;;;;0.70;0.55;;;26.00;80.20;;;;;;5012177;28;20053;-76
2022/05/23 11:59:30;;;;;;;0.20;0.20;;;25.90;79.90;;;;;;5006494;28;20033;-79
2022/05/23 12:02:11;;;;;;;0.30;0.30;;;25.70;76.40;;;;;;5001024;28;20045;-80
2022/05/23 12:04:55;;;;;;;0.57;0.43;;;25.60;75.50;;;;;;5009775;28;20426;-77
2022/05/23 12:07:44;;;;;;;0.20;0.20;;;25.60;81.20;;;;;;5000917;28;20450;-77
2022/05/23 12:10:25;;;;;;;0.38;0.38;;;25.90;78.30;;;;;;5029616;28;20614;-77
2022/05/23 12:12:51;;;;;;;0.22;0.22;;;26.10;81.50;;;;;;5014375;28;20096;-76
2022/05/23 12:15:41;;;;;;;0.40;0.40;;;26.20;80.50;;;;;;4997742;28;20073;-79
2022/05/23 12:18:09;;;;;;;0.10;0.10;;;26.30;79.30;;;;;;5020738;28;20052;-77
2022/05/23 12:20:45;;;;;;;0.10;0.10;;;26.40;77.30;;;;;;5005315;28;20039;-74
2022/05/23 12:23:16;;;;;;;;;;;26.50;78.60;;;;;;4990367;28;20034;-76
2022/05/23 12:25:42;;;;;;;0.20;0.20;;;26.40;74.30;;;;;;5011537;28;19925;-77
2022/05/23 12:28:14;;;;;;;0.20;0.20;;;26.30;75.30;;;;;;4989874;28;20096;-78
2022/05/23 12:30:43;;;;;;;0.20;0.20;;;26.30;77.30;;;;;;5014452;28;20045;-78
2022/05/23 12:33:14;;;;;;;0.13;0.13;;;26.40;85.90;;;;;;5012779;28;20050;-80
2022/05/23 12:35:40;;;;;;;0.17;0.17;;;26.50;74.60;;;;;;5017195;28;20049;-74
2022/05/23 12:38:17;;;;;;;0.20;0.20;;;26.40;73.30;;;;;;5011865;28;20403;-77
2022/05/23 12:40:47;;;;;;;0.35;0.30;;;26.20;73.20;;;;;;5039776;28;20069;-77
2022/05/23 12:43:34;;;;;;;0.40;0.40;;;26.00;74.50;;;;;;5027525;28;20048;-78
2022/05/23 12:46:09;;;;;;;0.20;0.20;;;25.90;80.40;;;;;;5026849;28;20040;-76
2022/05/23 12:48:53;;;;;;;0.20;0.20;;;25.80;74.10;;;;;;5001944;28;20052;-75
2022/05/23 12:51:54;;;;;;;0.22;0.22;;;25.80;74.10;;;;;;5019756;28;20045;-78
2022/05/23 12:55:07;;;;;;;0.30;0.30;;;25.70;80.00;;;;;;5015937;28;20517;-76
2022/05/23 12:57:42;;;;;;;0.35;0.35;;;25.60;78.70;;;;;;5005988;28;20058;-81
2022/05/23 13:00:18;;;;;;;0.30;0.30;;;25.60;80.20;;;;;;5018008;28;20045;-79
2022/05/23 13:02:57;;;;;;;0.40;0.40;;;25.50;78.00;;;;;;5013361;28;20049;-76
2022/05/23 13:05:33;;;;;;;0.20;0.20;;;25.40;75.40;;;;;;5021580;28;20115;-78
2022/05/23 13:08:49;;;;;;;0.73;0.73;;;25.20;78.10;;;;;;5011719;28;20048;-78
2022/05/23 13:11:37;;;;;;;0.35;0.35;;;25.00;77.70;;;;;;4936343;29;20187;-75
2022/05/23 13:14:04;;;;;;;0.43;0.43;;;24.90;78.50;;;;;;4933977;28;20094;-76
2022/05/23 13:16:32;;;;;;;0.32;0.30;;;24.90;78.40;;;;;;4986388;28;20088;-80
2022/05/23 13:22:06;;;;;;;0.30;0.30;;;24.90;82.50;;;;;;4994466;28;20059;-74
2022/05/23 13:24:57;;;;;;;0.20;0.20;;;24.90;81.30;;;;;;5019393;28;20369;-76
2022/05/23 13:27:31;;;;;;;1.85;0.57;;;24.80;81.10;;;;;;5007537;28;20522;-78
2022/05/23 13:30:03;;;;;;;0.10;0.10;;;24.60;82.10;;;;;;5046985;28;20056;-76
2022/05/23 13:32:29;;;;;;;0.60;0.60;;;24.60;85.50;;;;;;5016923;28;20417;-76
2022/05/23 13:34:59;;;;;;;0.22;0.22;;;24.60;83.60;;;;;;5015014;28;20041;-77
2022/05/23 13:37:34;;;;;;;0.40;0.40;;;24.50;83.20;;;;;;5017878;28;20056;-79
2022/05/23 13:40:16;;;;;;;0.45;0.35;;;24.40;85.60;;;;;;5015091;28;20167;-78
2022/05/23 13:42:42;;;;;;;0.20;0.20;;;24.50;85.10;;;;;;5027989;28;20038;-75
2022/05/23 13:45:24;;;;;;;0.20;0.20;;;24.40;86.00;;;;;;5010466;28;20045;-79
2022/05/23 13:47:49;;;;;;;0.73;0.73;;;24.40;87.20;;;;;;5023658;28;20184;-75
2022/05/23 13:50:39;;;;;;;0.17;0.17;;;24.40;86.60;;;;;;5036070;28;20125;-75
2022/05/23 13:53:08;;;;;;;0.20;0.20;;;24.40;85.80;;;;;;4999516;28;20049;-74
2022/05/23 13:55:41;;;;;;;0.40;0.40;;;24.30;86.60;;;;;;5048213;28;20049;-74
2022/05/23 13:58:16;;;;;;;0.22;0.22;;;24.40;86.60;;;;;;5021301;28;20383;-76
2022/05/23 14:00:55;;;;;;;0.40;0.40;;;24.40;89.00;;;;;;4995316;28;20041;-78
2022/05/23 14:03:28;;;;;;;0.20;0.20;;;24.50;89.40;;;;;;5029228;28;20045;-77
2022/05/23 14:05:55;;;;;;;0.17;0.17;;;24.50;88.30;;;;;;5006719;28;20140;-76
2022/05/23 14:08:33;;;;;;;0.50;0.50;;;24.40;89.70;;;;;;5011378;28;20045;-74
2022/05/23 14:11:27;;;;;;;0.20;0.20;;;24.30;93.50;;;;;;5010295;28;20069;-80
2022/05/23 14:14:01;;;;;;;0.63;0.63;;;24.10;95.40;;;;;;4985412;28;20150;-76
2022/05/23 14:16:27;;;;;;;0.40;0.40;;;24.00;99.90;;;;;;5008874;28;20033;-75
2022/05/23 14:19:19;;;;;;;0.40;0.40;;;24.00;99.80;;;;;;5027359;28;20056;-75
2022/05/23 14:21:45;;;;;;;0.30;0.30;;;24.20;99.90;;;;;;4994560;28;20127;-77
2022/05/23 14:24:25;;;;;;;0.28;0.28;;;24.60;99.40;;;;;;5026416;28;20073;-77
2022/05/23 14:27:15;;;;;;;0.65;0.65;;;24.90;98.20;;;;;;4991669;28;20087;-75
2022/05/23 14:29:43;;;;;;;0.35;0.35;;;25.20;99.90;;;;;;5010430;28;20053;-76
2022/05/23 14:32:28;;;;;;;0.20;0.20;;;25.30;98.90;;;;;;5043059;28;20068;-78
2022/05/23 14:34:53;;;;;;;0.28;0.28;;;25.40;98.80;;;;;;5032928;28;20053;-77
2022/05/23 14:37:21;;;;;;;0.10;0.10;;;25.50;99.50;;;;;;5010340;28;20057;-73
2022/05/23 14:39:53;;;;;;;0.20;0.20;;;25.60;99.90;;;;;;5055218;28;20041;-76
2022/05/23 14:42:29;;;;;;;0.30;0.30;;;25.60;98.00;;;;;;5009833;28;20511;-75
2022/05/23 14:45:17;;;;;;;0.10;0.10;;;25.50;96.50;;;;;;5009972;28;20049;-77
2022/05/23 14:48:17;;;;;;;0.10;0.10;;;25.20;96.70;;;;;;4993301;28;20047;-79
2022/05/23 14:50:52;;;;;;;0.20;0.20;;;24.90;96.90;;;;;;4954989;28;20391;-77
2022/05/23 14:56:43;;;;;;;0.20;0.20;;;24.50;95.00;;;;;;5002863;28;20045;-74
2022/05/23 15:02:45;;;;;;;0.20;0.20;;;24.30;94.20;;;;;;5000784;28;20061;-76
2022/05/23 15:05:12;;;;;;;0.30;0.30;;;24.30;95.50;;;;;;5046104;28;20470;-74
2022/05/23 15:07:38;;;;;;;0.22;0.22;;;24.40;95.40;;;;;;5036070;28;20059;-79
2022/05/23 15:10:04;;;;;;;0.20;0.20;;;24.40;96.50;;;;;;5014220;28;20442;-77
2022/05/23 15:12:30;;;;;;;0.65;0.50;;;24.50;96.00;;;;;;5004177;28;20353;-76
2022/05/23 15:14:56;;;;;;;0.20;0.20;;;24.50;96.10;;;;;;5010118;28;20037;-76